This is the latest recevied weather packets stored in our database for station/object SQ5OUZ-8. If no packets are shown the sender has not sent any weather packets the latest 10 day(s).
| Time | Temp. | Humidity | Pressure | Rain* | Wind** | Luminosity | Snow |
|---|---|---|---|---|---|---|---|
| 1777890144 | 30.56° C | 18% | 1014 hPa | - | - | - | - |
| 1777889169 | 31.67° C | 18% | 1014 hPa | - | - | - | - |
| 1777888039 | 30.56° C | 19% | 1014 hPa | - | - | - | - |
| 1777886937 | 31.11° C | 19% | 1014 hPa | - | - | - | - |
| 1777885740 | 29.44° C | 20% | 1015 hPa | - | - | - | - |
| 1777884642 | 28.33° C | 21% | 1015 hPa | - | - | - | - |
| 1777883497 | 27.22° C | 23% | 1015 hPa | - | - | - | - |
| 1777882388 | 27.78° C | 22% | 1015 hPa | - | - | - | - |
| 1777881325 | 26.67° C | 22% | 1015 hPa | - | - | - | - |
| 1777880237 | 25.56° C | 25% | 1015 hPa | - | - | - | - |
| 1777879049 | 26.11° C | 24% | 1015 hPa | - | - | - | - |
| 1777878012 | 23.89° C | 26% | 1015 hPa | - | - | - | - |
| 1777877017 | 25° C | 25% | 1016 hPa | - | - | - | - |
| 1777876046 | 23.33° C | 26% | 1015 hPa | - | - | - | - |
| 1777875080 | 22.78° C | 28% | 1015 hPa | - | - | - | - |
| 1777873993 | 18.89° C | 35% | 1016 hPa | - | - | - | - |
| 1777872841 | 17.22° C | 39% | 1016 hPa | - | - | - | - |
| 1777871751 | 16.11° C | 42% | 1016 hPa | - | - | - | - |
| 1777870724 | 15° C | 45% | 1016 hPa | - | - | - | - |
| 1777869641 | 13.89° C | 50% | 1016 hPa | - | - | - | - |
| 1777868530 | 12.78° C | 56% | 1016 hPa | - | - | - | - |
| 1777867496 | 12.22° C | 59% | 1016 hPa | - | - | - | - |
| 1777866476 | 11.67° C | 60% | 1016 hPa | - | - | - | - |
| 1777865298 | 11.67° C | 58% | 1016 hPa | - | - | - | - |
| 1777864340 | 12.22° C | 57% | 1016 hPa | - | - | - | - |
* Rain since midnight (hover to see other rain measurements)
** Current wind speed in m/s (hover to see current wind gust speed)